sensor_id;sensor_type;location;lat;lon;timestamp;temperature;humidity
11599;DHT22;5855;48.840;9.188;2023-06-24T00:00:00;16.80;99.90
11599;DHT22;5855;48.840;9.188;2023-06-24T00:02:30;16.80;99.90
11599;DHT22;5855;48.840;9.188;2023-06-24T00:04:57;16.80;99.90
11599;DHT22;5855;48.840;9.188;2023-06-24T00:07:26;16.80;99.90
11599;DHT22;5855;48.840;9.188;2023-06-24T00:09:53;16.80;99.90
11599;DHT22;5855;48.840;9.188;2023-06-24T00:12:20;16.70;99.90
11599;DHT22;5855;48.840;9.188;2023-06-24T00:14:47;16.70;99.90
11599;DHT22;5855;48.840;9.188;2023-06-24T00:17:14;16.70;99.90
11599;DHT22;5855;48.840;9.188;2023-06-24T00:19:43;16.60;99.90
11599;DHT22;5855;48.840;9.188;2023-06-24T00:22:10;16.50;99.90
11599;DHT22;5855;48.840;9.188;2023-06-24T00:24:37;16.40;99.90
11599;DHT22;5855;48.840;9.188;2023-06-24T00:27:05;16.40;99.90
11599;DHT22;5855;48.840;9.188;2023-06-24T00:29:32;16.40;99.90
11599;DHT22;5855;48.840;9.188;2023-06-24T00:31:59;16.40;99.90
11599;DHT22;5855;48.840;9.188;2023-06-24T00:34:26;16.30;99.90
11599;DHT22;5855;48.840;9.188;2023-06-24T00:36:54;16.30;99.90
11599;DHT22;5855;48.840;9.188;2023-06-24T00:39:21;16.30;99.90
11599;DHT22;5855;48.840;9.188;2023-06-24T00:41:49;16.30;99.90
11599;DHT22;5855;48.840;9.188;2023-06-24T00:44:16;16.20;99.90
11599;DHT22;5855;48.840;9.188;2023-06-24T00:46:43;16.20;99.90
11599;DHT22;5855;48.840;9.188;2023-06-24T00:49:10;16.10;99.90
11599;DHT22;5855;48.840;9.188;2023-06-24T00:51:40;16.10;99.90
11599;DHT22;5855;48.840;9.188;2023-06-24T00:54:14;16.10;99.90
11599;DHT22;5855;48.840;9.188;2023-06-24T00:56:41;16.10;99.90
11599;DHT22;5855;48.840;9.188;2023-06-24T00:59:10;16.00;99.90
11599;DHT22;5855;48.840;9.188;2023-06-24T01:01:40;16.00;99.90
11599;DHT22;5855;48.840;9.188;2023-06-24T01:04:07;16.00;99.90
11599;DHT22;5855;48.840;9.188;2023-06-24T01:06:37;15.90;99.90
11599;DHT22;5855;48.840;9.188;2023-06-24T01:09:09;15.90;99.90
11599;DHT22;5855;48.840;9.188;2023-06-24T01:11:38;15.90;99.90
11599;DHT22;5855;48.840;9.188;2023-06-24T01:14:05;15.90;99.90
11599;DHT22;5855;48.840;9.188;2023-06-24T01:16:37;15.90;99.90
11599;DHT22;5855;48.840;9.188;2023-06-24T01:19:21;15.90;99.90
11599;DHT22;5855;48.840;9.188;2023-06-24T01:22:01;15.80;99.90
11599;DHT22;5855;48.840;9.188;2023-06-24T01:24:47;15.80;99.90
11599;DHT22;5855;48.840;9.188;2023-06-24T01:27:39;15.80;99.90
11599;DHT22;5855;48.840;9.188;2023-06-24T01:33:16;15.70;99.90
11599;DHT22;5855;48.840;9.188;2023-06-24T01:35:47;15.70;99.90
11599;DHT22;5855;48.840;9.188;2023-06-24T01:38:20;15.60;99.90
11599;DHT22;5855;48.840;9.188;2023-06-24T01:40:48;15.70;99.90
11599;DHT22;5855;48.840;9.188;2023-06-24T01:43:17;15.70;99.90
11599;DHT22;5855;48.840;9.188;2023-06-24T01:45:50;15.60;99.90
11599;DHT22;5855;48.840;9.188;2023-06-24T01:48:24;15.60;99.90
11599;DHT22;5855;48.840;9.188;2023-06-24T01:51:03;15.50;99.90
11599;DHT22;5855;48.840;9.188;2023-06-24T01:53:41;15.40;99.90
11599;DHT22;5855;48.840;9.188;2023-06-24T01:56:11;15.30;99.90
11599;DHT22;5855;48.840;9.188;2023-06-24T01:58:39;15.30;99.90
11599;DHT22;5855;48.840;9.188;2023-06-24T02:01:08;15.30;99.90
11599;DHT22;5855;48.840;9.188;2023-06-24T02:03:37;15.20;99.90
11599;DHT22;5855;48.840;9.188;2023-06-24T02:06:04;15.20;99.90
11599;DHT22;5855;48.840;9.188;2023-06-24T02:08:36;15.20;99.90
11599;DHT22;5855;48.840;9.188;2023-06-24T02:11:05;15.20;99.90
11599;DHT22;5855;48.840;9.188;2023-06-24T02:13:34;15.20;99.90
11599;DHT22;5855;48.840;9.188;2023-06-24T02:16:03;15.20;99.90
11599;DHT22;5855;48.840;9.188;2023-06-24T02:18:31;15.20;99.90
11599;DHT22;5855;48.840;9.188;2023-06-24T02:21:01;15.20;99.90
11599;DHT22;5855;48.840;9.188;2023-06-24T02:23:29;15.20;99.90
11599;DHT22;5855;48.840;9.188;2023-06-24T02:25:57;15.10;99.90
11599;DHT22;5855;48.840;9.188;2023-06-24T02:28:25;15.10;99.90
11599;DHT22;5855;48.840;9.188;2023-06-24T02:30:52;15.00;99.90
11599;DHT22;5855;48.840;9.188;2023-06-24T02:33:19;15.00;99.90
11599;DHT22;5855;48.840;9.188;2023-06-24T02:35:46;15.00;99.90
11599;DHT22;5855;48.840;9.188;2023-06-24T02:38:14;15.00;99.90
11599;DHT22;5855;48.840;9.188;2023-06-24T02:40:43;14.90;99.90
11599;DHT22;5855;48.840;9.188;2023-06-24T02:43:10;14.90;99.90
11599;DHT22;5855;48.840;9.188;2023-06-24T02:45:38;14.90;99.90
11599;DHT22;5855;48.840;9.188;2023-06-24T02:48:07;14.90;99.90
11599;DHT22;5855;48.840;9.188;2023-06-24T02:50:35;14.90;99.90
11599;DHT22;5855;48.840;9.188;2023-06-24T02:53:04;14.80;99.90
11599;DHT22;5855;48.840;9.188;2023-06-24T02:55:33;14.80;99.90
11599;DHT22;5855;48.840;9.188;2023-06-24T02:58:02;14.80;99.90
11599;DHT22;5855;48.840;9.188;2023-06-24T03:00:30;14.80;99.90
11599;DHT22;5855;48.840;9.188;2023-06-24T03:02:59;14.80;99.90
11599;DHT22;5855;48.840;9.188;2023-06-24T03:05:27;14.80;99.90
11599;DHT22;5855;48.840;9.188;2023-06-24T03:07:55;14.80;99.90
11599;DHT22;5855;48.840;9.188;2023-06-24T03:10:23;14.80;99.90
11599;DHT22;5855;48.840;9.188;2023-06-24T03:12:51;14.80;99.90
11599;DHT22;5855;48.840;9.188;2023-06-24T03:15:19;14.70;99.90
11599;DHT22;5855;48.840;9.188;2023-06-24T03:17:46;14.70;99.90
11599;DHT22;5855;48.840;9.188;2023-06-24T03:20:13;14.70;99.90
11599;DHT22;5855;48.840;9.188;2023-06-24T03:22:40;14.60;99.90
11599;DHT22;5855;48.840;9.188;2023-06-24T03:25:07;14.60;99.90
11599;DHT22;5855;48.840;9.188;2023-06-24T03:27:34;14.60;99.90
11599;DHT22;5855;48.840;9.188;2023-06-24T03:30:04;14.60;99.90
11599;DHT22;5855;48.840;9.188;2023-06-24T03:32:31;14.60;99.90
11599;DHT22;5855;48.840;9.188;2023-06-24T03:35:00;14.60;99.90
11599;DHT22;5855;48.840;9.188;2023-06-24T03:37:27;14.60;99.90
11599;DHT22;5855;48.840;9.188;2023-06-24T03:39:55;14.60;99.90
11599;DHT22;5855;48.840;9.188;2023-06-24T03:42:21;14.60;99.90
11599;DHT22;5855;48.840;9.188;2023-06-24T03:44:48;14.60;99.90
11599;DHT22;5855;48.840;9.188;2023-06-24T03:47:17;14.60;99.90
11599;DHT22;5855;48.840;9.188;2023-06-24T03:49:44;14.60;99.90
11599;DHT22;5855;48.840;9.188;2023-06-24T03:52:10;14.60;99.90
11599;DHT22;5855;48.840;9.188;2023-06-24T03:54:38;14.70;99.90
11599;DHT22;5855;48.840;9.188;2023-06-24T03:57:06;14.70;99.90
11599;DHT22;5855;48.840;9.188;2023-06-24T03:59:33;14.80;99.90
11599;DHT22;5855;48.840;9.188;2023-06-24T04:02:00;14.80;99.90
11599;DHT22;5855;48.840;9.188;2023-06-24T04:04:30;14.80;99.90
11599;DHT22;5855;48.840;9.188;2023-06-24T04:06:57;14.90;99.90
11599;DHT22;5855;48.840;9.188;2023-06-24T04:09:24;15.00;99.90
11599;DHT22;5855;48.840;9.188;2023-06-24T04:11:51;15.00;99.90
11599;DHT22;5855;48.840;9.188;2023-06-24T04:14:18;15.10;99.90
11599;DHT22;5855;48.840;9.188;2023-06-24T04:16:45;15.20;99.90
11599;DHT22;5855;48.840;9.188;2023-06-24T04:19:11;15.20;99.90
11599;DHT22;5855;48.840;9.188;2023-06-24T04:21:40;15.30;99.90
11599;DHT22;5855;48.840;9.188;2023-06-24T04:24:06;15.40;99.90
11599;DHT22;5855;48.840;9.188;2023-06-24T04:26:33;15.40;99.90
11599;DHT22;5855;48.840;9.188;2023-06-24T04:29:00;15.50;99.90
11599;DHT22;5855;48.840;9.188;2023-06-24T04:31:27;15.50;99.90
11599;DHT22;5855;48.840;9.188;2023-06-24T04:33:55;15.60;99.90
11599;DHT22;5855;48.840;9.188;2023-06-24T04:36:22;15.70;99.90
11599;DHT22;5855;48.840;9.188;2023-06-24T04:38:50;15.80;99.90
11599;DHT22;5855;48.840;9.188;2023-06-24T04:41:17;15.80;99.90
11599;DHT22;5855;48.840;9.188;2023-06-24T04:43:45;15.90;99.90
11599;DHT22;5855;48.840;9.188;2023-06-24T04:46:12;16.00;99.90
11599;DHT22;5855;48.840;9.188;2023-06-24T04:48:41;16.10;99.90
11599;DHT22;5855;48.840;9.188;2023-06-24T04:51:08;16.20;99.90
11599;DHT22;5855;48.840;9.188;2023-06-24T04:53:35;16.20;99.90
11599;DHT22;5855;48.840;9.188;2023-06-24T04:56:04;16.30;99.90
11599;DHT22;5855;48.840;9.188;2023-06-24T04:58:31;16.40;99.90
11599;DHT22;5855;48.840;9.188;2023-06-24T05:00:58;16.40;99.90
11599;DHT22;5855;48.840;9.188;2023-06-24T05:03:25;16.40;99.90
11599;DHT22;5855;48.840;9.188;2023-06-24T05:05:52;16.40;99.90
11599;DHT22;5855;48.840;9.188;2023-06-24T05:08:21;16.40;99.90
11599;DHT22;5855;48.840;9.188;2023-06-24T05:10:48;16.50;99.90
11599;DHT22;5855;48.840;9.188;2023-06-24T05:13:16;16.60;99.90
11599;DHT22;5855;48.840;9.188;2023-06-24T05:15:43;16.70;99.90
11599;DHT22;5855;48.840;9.188;2023-06-24T05:18:10;16.80;99.90
11599;DHT22;5855;48.840;9.188;2023-06-24T05:20:37;16.80;99.90
11599;DHT22;5855;48.840;9.188;2023-06-24T05:23:04;16.80;99.90
11599;DHT22;5855;48.840;9.188;2023-06-24T05:25:31;16.90;99.90
11599;DHT22;5855;48.840;9.188;2023-06-24T05:27:58;17.00;99.90
11599;DHT22;5855;48.840;9.188;2023-06-24T05:30:26;17.20;99.90
11599;DHT22;5855;48.840;9.188;2023-06-24T05:32:53;17.30;99.90
11599;DHT22;5855;48.840;9.188;2023-06-24T05:35:20;17.30;99.90
11599;DHT22;5855;48.840;9.188;2023-06-24T05:37:47;17.30;99.90
11599;DHT22;5855;48.840;9.188;2023-06-24T05:40:14;17.40;99.90
11599;DHT22;5855;48.840;9.188;2023-06-24T05:42:41;17.50;99.90
11599;DHT22;5855;48.840;9.188;2023-06-24T05:45:09;17.80;99.90
11599;DHT22;5855;48.840;9.188;2023-06-24T05:47:37;18.00;99.90
11599;DHT22;5855;48.840;9.188;2023-06-24T05:50:05;18.00;99.90
11599;DHT22;5855;48.840;9.188;2023-06-24T05:52:32;18.00;99.90
11599;DHT22;5855;48.840;9.188;2023-06-24T05:54:59;18.30;99.90
11599;DHT22;5855;48.840;9.188;2023-06-24T05:57:31;18.30;99.90
11599;DHT22;5855;48.840;9.188;2023-06-24T05:59:58;18.30;99.90
11599;DHT22;5855;48.840;9.188;2023-06-24T06:02:25;18.30;99.90
11599;DHT22;5855;48.840;9.188;2023-06-24T06:04:53;18.50;99.90
11599;DHT22;5855;48.840;9.188;2023-06-24T06:07:20;18.60;99.90
11599;DHT22;5855;48.840;9.188;2023-06-24T06:09:47;18.70;99.90
11599;DHT22;5855;48.840;9.188;2023-06-24T06:12:14;18.70;99.90
11599;DHT22;5855;48.840;9.188;2023-06-24T06:14:42;18.90;99.90
11599;DHT22;5855;48.840;9.188;2023-06-24T06:17:09;19.00;99.90
11599;DHT22;5855;48.840;9.188;2023-06-24T06:19:35;19.10;99.90
11599;DHT22;5855;48.840;9.188;2023-06-24T06:22:08;19.20;99.90
11599;DHT22;5855;48.840;9.188;2023-06-24T06:24:35;19.30;99.90
11599;DHT22;5855;48.840;9.188;2023-06-24T06:27:02;19.50;99.90
11599;DHT22;5855;48.840;9.188;2023-06-24T06:29:29;19.70;99.90
11599;DHT22;5855;48.840;9.188;2023-06-24T06:31:56;19.90;99.90
11599;DHT22;5855;48.840;9.188;2023-06-24T06:34:23;20.00;99.90
11599;DHT22;5855;48.840;9.188;2023-06-24T06:36:50;20.00;99.90
11599;DHT22;5855;48.840;9.188;2023-06-24T06:39:18;20.20;99.90
11599;DHT22;5855;48.840;9.188;2023-06-24T06:41:45;20.20;99.90
11599;DHT22;5855;48.840;9.188;2023-06-24T06:44:12;20.40;99.90
11599;DHT22;5855;48.840;9.188;2023-06-24T06:46:39;20.40;99.90
11599;DHT22;5855;48.840;9.188;2023-06-24T06:49:06;20.50;99.90
11599;DHT22;5855;48.840;9.188;2023-06-24T06:51:36;20.50;99.90
11599;DHT22;5855;48.840;9.188;2023-06-24T06:54:03;20.50;99.90
11599;DHT22;5855;48.840;9.188;2023-06-24T06:56:31;20.70;99.90
11599;DHT22;5855;48.840;9.188;2023-06-24T06:58:58;20.90;99.90
11599;DHT22;5855;48.840;9.188;2023-06-24T07:01:25;21.10;99.90
11599;DHT22;5855;48.840;9.188;2023-06-24T07:03:52;21.30;99.90
11599;DHT22;5855;48.840;9.188;2023-06-24T07:06:21;21.40;99.90
11599;DHT22;5855;48.840;9.188;2023-06-24T07:08:50;21.50;99.90
11599;DHT22;5855;48.840;9.188;2023-06-24T07:11:17;21.60;99.90
11599;DHT22;5855;48.840;9.188;2023-06-24T07:13:45;21.70;99.90
11599;DHT22;5855;48.840;9.188;2023-06-24T07:16:16;21.70;99.90
11599;DHT22;5855;48.840;9.188;2023-06-24T07:18:43;21.90;99.90
11599;DHT22;5855;48.840;9.188;2023-06-24T07:21:10;22.00;99.90
11599;DHT22;5855;48.840;9.188;2023-06-24T07:23:37;22.00;99.90
11599;DHT22;5855;48.840;9.188;2023-06-24T07:26:04;22.20;99.90
11599;DHT22;5855;48.840;9.188;2023-06-24T07:28:31;22.30;99.90
11599;DHT22;5855;48.840;9.188;2023-06-24T07:30:59;22.50;99.90
11599;DHT22;5855;48.840;9.188;2023-06-24T07:33:29;22.70;99.90
11599;DHT22;5855;48.840;9.188;2023-06-24T07:35:56;22.90;99.90
11599;DHT22;5855;48.840;9.188;2023-06-24T07:38:23;23.00;99.90
11599;DHT22;5855;48.840;9.188;2023-06-24T07:40:50;23.20;99.90
11599;DHT22;5855;48.840;9.188;2023-06-24T07:43:17;23.50;99.90
11599;DHT22;5855;48.840;9.188;2023-06-24T07:45:44;23.40;99.90
11599;DHT22;5855;48.840;9.188;2023-06-24T07:48:12;23.60;99.90
11599;DHT22;5855;48.840;9.188;2023-06-24T07:50:39;23.70;99.90
11599;DHT22;5855;48.840;9.188;2023-06-24T07:53:06;23.80;99.90
11599;DHT22;5855;48.840;9.188;2023-06-24T07:55:33;24.00;99.90
11599;DHT22;5855;48.840;9.188;2023-06-24T07:57:59;23.90;99.90
11599;DHT22;5855;48.840;9.188;2023-06-24T08:00:28;24.10;99.90
11599;DHT22;5855;48.840;9.188;2023-06-24T08:02:55;24.20;99.90
11599;DHT22;5855;48.840;9.188;2023-06-24T08:05:23;24.20;99.40
11599;DHT22;5855;48.840;9.188;2023-06-24T08:07:51;24.30;99.60
11599;DHT22;5855;48.840;9.188;2023-06-24T08:10:18;24.40;99.90
11599;DHT22;5855;48.840;9.188;2023-06-24T08:12:45;24.40;99.80
11599;DHT22;5855;48.840;9.188;2023-06-24T08:15:12;24.60;99.90
11599;DHT22;5855;48.840;9.188;2023-06-24T08:17:40;24.80;99.50
11599;DHT22;5855;48.840;9.188;2023-06-24T08:20:10;25.00;99.30
11599;DHT22;5855;48.840;9.188;2023-06-24T08:22:38;25.40;98.00
11599;DHT22;5855;48.840;9.188;2023-06-24T08:25:06;25.30;97.40
11599;DHT22;5855;48.840;9.188;2023-06-24T08:27:33;25.40;98.00
11599;DHT22;5855;48.840;9.188;2023-06-24T08:30:00;25.50;97.10
11599;DHT22;5855;48.840;9.188;2023-06-24T08:32:27;25.70;97.10
11599;DHT22;5855;48.840;9.188;2023-06-24T08:34:54;25.70;96.10
11599;DHT22;5855;48.840;9.188;2023-06-24T08:37:21;25.90;95.70
11599;DHT22;5855;48.840;9.188;2023-06-24T08:39:49;26.10;94.60
11599;DHT22;5855;48.840;9.188;2023-06-24T08:42:16;26.10;94.60
11599;DHT22;5855;48.840;9.188;2023-06-24T08:44:43;26.10;93.80
11599;DHT22;5855;48.840;9.188;2023-06-24T08:47:10;26.20;94.00
11599;DHT22;5855;48.840;9.188;2023-06-24T08:49:46;26.50;92.70
11599;DHT22;5855;48.840;9.188;2023-06-24T08:52:15;26.60;92.50
11599;DHT22;5855;48.840;9.188;2023-06-24T08:54:46;26.80;92.30
11599;DHT22;5855;48.840;9.188;2023-06-24T08:57:15;26.90;90.20
11599;DHT22;5855;48.840;9.188;2023-06-24T08:59:43;27.10;86.80
11599;DHT22;5855;48.840;9.188;2023-06-24T09:02:10;27.10;85.50
11599;DHT22;5855;48.840;9.188;2023-06-24T09:04:44;27.10;84.60
11599;DHT22;5855;48.840;9.188;2023-06-24T09:07:11;26.90;85.00
11599;DHT22;5855;48.840;9.188;2023-06-24T09:09:42;26.60;86.90
11599;DHT22;5855;48.840;9.188;2023-06-24T09:12:11;26.80;86.00
11599;DHT22;5855;48.840;9.188;2023-06-24T09:14:39;27.00;84.60
11599;DHT22;5855;48.840;9.188;2023-06-24T09:17:08;27.50;83.20
11599;DHT22;5855;48.840;9.188;2023-06-24T09:19:36;27.60;81.40
11599;DHT22;5855;48.840;9.188;2023-06-24T09:22:04;27.60;81.30
11599;DHT22;5855;48.840;9.188;2023-06-24T09:24:31;27.60;81.40
11599;DHT22;5855;48.840;9.188;2023-06-24T09:26:58;27.80;81.40
11599;DHT22;5855;48.840;9.188;2023-06-24T09:29:26;27.70;81.30
11599;DHT22;5855;48.840;9.188;2023-06-24T09:31:54;28.00;80.10
11599;DHT22;5855;48.840;9.188;2023-06-24T09:34:24;28.00;78.10
11599;DHT22;5855;48.840;9.188;2023-06-24T09:36:52;28.20;77.20
11599;DHT22;5855;48.840;9.188;2023-06-24T09:39:19;28.40;76.60
11599;DHT22;5855;48.840;9.188;2023-06-24T09:41:49;28.40;75.10
11599;DHT22;5855;48.840;9.188;2023-06-24T09:44:17;28.70;73.10
11599;DHT22;5855;48.840;9.188;2023-06-24T09:46:45;28.60;72.70
11599;DHT22;5855;48.840;9.188;2023-06-24T09:49:17;28.70;73.00
11599;DHT22;5855;48.840;9.188;2023-06-24T09:51:44;28.90;73.60
11599;DHT22;5855;48.840;9.188;2023-06-24T09:54:13;29.10;72.30
11599;DHT22;5855;48.840;9.188;2023-06-24T09:56:45;29.30;69.40
11599;DHT22;5855;48.840;9.188;2023-06-24T09:59:12;29.50;69.10
11599;DHT22;5855;48.840;9.188;2023-06-24T10:01:41;29.70;67.00
11599;DHT22;5855;48.840;9.188;2023-06-24T10:04:16;29.80;65.20
11599;DHT22;5855;48.840;9.188;2023-06-24T10:06:45;29.60;61.90
11599;DHT22;5855;48.840;9.188;2023-06-24T10:09:12;29.50;63.10
11599;DHT22;5855;48.840;9.188;2023-06-24T10:11:42;29.50;64.00
11599;DHT22;5855;48.840;9.188;2023-06-24T10:14:09;29.60;64.60
11599;DHT22;5855;48.840;9.188;2023-06-24T10:16:37;29.70;61.80
11599;DHT22;5855;48.840;9.188;2023-06-24T10:19:04;29.90;61.10
11599;DHT22;5855;48.840;9.188;2023-06-24T10:21:46;30.00;61.50
11599;DHT22;5855;48.840;9.188;2023-06-24T10:24:28;30.40;58.20
11599;DHT22;5855;48.840;9.188;2023-06-24T10:27:01;30.80;55.40
11599;DHT22;5855;48.840;9.188;2023-06-24T10:29:32;31.10;52.20
11599;DHT22;5855;48.840;9.188;2023-06-24T10:32:06;31.40;51.80
11599;DHT22;5855;48.840;9.188;2023-06-24T10:34:38;31.80;50.70
11599;DHT22;5855;48.840;9.188;2023-06-24T10:37:11;32.10;47.40
11599;DHT22;5855;48.840;9.188;2023-06-24T10:39:45;32.30;45.70
11599;DHT22;5855;48.840;9.188;2023-06-24T10:42:31;32.50;42.50
11599;DHT22;5855;48.840;9.188;2023-06-24T10:45:00;32.80;44.10
11599;DHT22;5855;48.840;9.188;2023-06-24T10:47:28;33.10;43.20
11599;DHT22;5855;48.840;9.188;2023-06-24T10:49:56;33.10;40.40
11599;DHT22;5855;48.840;9.188;2023-06-24T10:52:24;32.70;40.90
11599;DHT22;5855;48.840;9.188;2023-06-24T10:54:52;32.80;42.10
11599;DHT22;5855;48.840;9.188;2023-06-24T10:57:23;33.00;43.30
11599;DHT22;5855;48.840;9.188;2023-06-24T10:59:51;33.40;43.10
11599;DHT22;5855;48.840;9.188;2023-06-24T11:02:20;33.60;41.80
11599;DHT22;5855;48.840;9.188;2023-06-24T11:04:48;34.10;40.10
11599;DHT22;5855;48.840;9.188;2023-06-24T11:07:17;34.40;39.00
11599;DHT22;5855;48.840;9.188;2023-06-24T11:09:49;34.80;39.20
11599;DHT22;5855;48.840;9.188;2023-06-24T11:12:17;35.30;38.30
11599;DHT22;5855;48.840;9.188;2023-06-24T11:14:44;35.60;37.30
11599;DHT22;5855;48.840;9.188;2023-06-24T11:17:11;35.80;35.00
11599;DHT22;5855;48.840;9.188;2023-06-24T11:19:39;35.90;33.30
11599;DHT22;5855;48.840;9.188;2023-06-24T11:22:07;36.10;33.00
11599;DHT22;5855;48.840;9.188;2023-06-24T11:24:34;36.50;31.40
11599;DHT22;5855;48.840;9.188;2023-06-24T11:27:04;36.40;30.80
11599;DHT22;5855;48.840;9.188;2023-06-24T11:29:32;36.60;31.60
11599;DHT22;5855;48.840;9.188;2023-06-24T11:32:00;37.20;30.50
11599;DHT22;5855;48.840;9.188;2023-06-24T11:34:27;37.90;29.80
11599;DHT22;5855;48.840;9.188;2023-06-24T11:36:54;38.60;29.30
11599;DHT22;5855;48.840;9.188;2023-06-24T11:39:21;38.80;27.90
11599;DHT22;5855;48.840;9.188;2023-06-24T11:41:49;39.00;26.30
11599;DHT22;5855;48.840;9.188;2023-06-24T11:44:18;38.80;25.90
11599;DHT22;5855;48.840;9.188;2023-06-24T11:46:46;38.30;25.80
11599;DHT22;5855;48.840;9.188;2023-06-24T11:49:13;37.90;25.80
11599;DHT22;5855;48.840;9.188;2023-06-24T11:51:46;37.70;26.20
11599;DHT22;5855;48.840;9.188;2023-06-24T11:54:20;38.10;25.70
11599;DHT22;5855;48.840;9.188;2023-06-24T11:56:50;38.80;25.80
11599;DHT22;5855;48.840;9.188;2023-06-24T11:59:21;39.70;25.40
11599;DHT22;5855;48.840;9.188;2023-06-24T12:01:53;40.50;24.70
11599;DHT22;5855;48.840;9.188;2023-06-24T12:04:21;41.00;23.50
11599;DHT22;5855;48.840;9.188;2023-06-24T12:06:48;41.20;23.20
11599;DHT22;5855;48.840;9.188;2023-06-24T12:09:15;41.80;21.40
11599;DHT22;5855;48.840;9.188;2023-06-24T12:11:42;40.90;22.00
11599;DHT22;5855;48.840;9.188;2023-06-24T12:14:09;41.80;21.70
11599;DHT22;5855;48.840;9.188;2023-06-24T12:16:38;42.70;20.50
11599;DHT22;5855;48.840;9.188;2023-06-24T12:19:05;41.50;20.20
11599;DHT22;5855;48.840;9.188;2023-06-24T12:21:32;40.70;20.00
11599;DHT22;5855;48.840;9.188;2023-06-24T12:23:59;41.20;19.90
11599;DHT22;5855;48.840;9.188;2023-06-24T12:26:26;40.20;20.20
11599;DHT22;5855;48.840;9.188;2023-06-24T12:28:54;39.20;20.90
11599;DHT22;5855;48.840;9.188;2023-06-24T12:31:21;39.60;19.80
11599;DHT22;5855;48.840;9.188;2023-06-24T12:33:50;40.50;19.40
11599;DHT22;5855;48.840;9.188;2023-06-24T12:36:17;41.60;18.90
11599;DHT22;5855;48.840;9.188;2023-06-24T12:38:44;43.00;18.50
11599;DHT22;5855;48.840;9.188;2023-06-24T12:41:11;43.60;17.80
11599;DHT22;5855;48.840;9.188;2023-06-24T12:43:37;44.00;17.20
11599;DHT22;5855;48.840;9.188;2023-06-24T12:46:04;45.20;16.20
11599;DHT22;5855;48.840;9.188;2023-06-24T12:48:31;45.80;15.30
11599;DHT22;5855;48.840;9.188;2023-06-24T12:50:59;44.90;15.10
11599;DHT22;5855;48.840;9.188;2023-06-24T12:53:26;43.70;14.80
11599;DHT22;5855;48.840;9.188;2023-06-24T12:55:54;44.30;14.90
11599;DHT22;5855;48.840;9.188;2023-06-24T12:58:23;44.00;14.20
11599;DHT22;5855;48.840;9.188;2023-06-24T13:00:51;44.90;13.60
11599;DHT22;5855;48.840;9.188;2023-06-24T13:03:19;45.30;13.60
11599;DHT22;5855;48.840;9.188;2023-06-24T13:05:46;46.00;12.50
11599;DHT22;5855;48.840;9.188;2023-06-24T13:08:14;46.60;11.40
11599;DHT22;5855;48.840;9.188;2023-06-24T13:10:43;47.60;10.80
11599;DHT22;5855;48.840;9.188;2023-06-24T13:13:10;47.90;10.30
11599;DHT22;5855;48.840;9.188;2023-06-24T13:15:37;48.40;9.90
11599;DHT22;5855;48.840;9.188;2023-06-24T13:18:04;48.20;9.80
11599;DHT22;5855;48.840;9.188;2023-06-24T13:20:31;47.70;9.30
11599;DHT22;5855;48.840;9.188;2023-06-24T13:22:57;47.70;9.40
11599;DHT22;5855;48.840;9.188;2023-06-24T13:25:26;48.90;8.90
11599;DHT22;5855;48.840;9.188;2023-06-24T13:27:52;49.60;8.80
11599;DHT22;5855;48.840;9.188;2023-06-24T13:30:19;49.70;8.10
11599;DHT22;5855;48.840;9.188;2023-06-24T13:32:48;49.60;8.10
11599;DHT22;5855;48.840;9.188;2023-06-24T13:35:15;49.30;8.40
11599;DHT22;5855;48.840;9.188;2023-06-24T13:37:42;49.50;8.10
11599;DHT22;5855;48.840;9.188;2023-06-24T13:40:10;49.00;8.00
11599;DHT22;5855;48.840;9.188;2023-06-24T13:42:39;48.80;8.00
11599;DHT22;5855;48.840;9.188;2023-06-24T13:45:06;48.70;8.00
11599;DHT22;5855;48.840;9.188;2023-06-24T13:47:33;48.50;8.00
11599;DHT22;5855;48.840;9.188;2023-06-24T13:50:00;49.00;7.60
11599;DHT22;5855;48.840;9.188;2023-06-24T13:52:27;49.20;7.70
11599;DHT22;5855;48.840;9.188;2023-06-24T13:54:54;48.80;7.90
11599;DHT22;5855;48.840;9.188;2023-06-24T13:57:21;48.50;7.70
11599;DHT22;5855;48.840;9.188;2023-06-24T13:59:50;49.10;7.30
11599;DHT22;5855;48.840;9.188;2023-06-24T14:02:16;49.30;7.30
11599;DHT22;5855;48.840;9.188;2023-06-24T14:04:47;49.60;6.80
11599;DHT22;5855;48.840;9.188;2023-06-24T14:07:14;49.90;6.50
11599;DHT22;5855;48.840;9.188;2023-06-24T14:09:41;50.10;6.50
11599;DHT22;5855;48.840;9.188;2023-06-24T14:12:09;49.10;6.70
11599;DHT22;5855;48.840;9.188;2023-06-24T14:14:36;48.30;7.10
11599;DHT22;5855;48.840;9.188;2023-06-24T14:17:06;48.40;7.40
11599;DHT22;5855;48.840;9.188;2023-06-24T14:19:36;49.10;7.10
11599;DHT22;5855;48.840;9.188;2023-06-24T14:22:03;49.60;6.80
11599;DHT22;5855;48.840;9.188;2023-06-24T14:24:31;49.50;6.60
11599;DHT22;5855;48.840;9.188;2023-06-24T14:26:58;49.50;6.80
11599;DHT22;5855;48.840;9.188;2023-06-24T14:29:25;49.50;6.40
11599;DHT22;5855;48.840;9.188;2023-06-24T14:31:52;49.90;6.40
11599;DHT22;5855;48.840;9.188;2023-06-24T14:34:20;49.10;6.00
11599;DHT22;5855;48.840;9.188;2023-06-24T14:36:47;48.90;6.40
11599;DHT22;5855;48.840;9.188;2023-06-24T14:39:15;49.30;6.30
11599;DHT22;5855;48.840;9.188;2023-06-24T14:41:42;49.50;5.70
11599;DHT22;5855;48.840;9.188;2023-06-24T14:44:10;48.70;6.00
11599;DHT22;5855;48.840;9.188;2023-06-24T14:46:37;48.50;6.50
11599;DHT22;5855;48.840;9.188;2023-06-24T14:49:06;48.80;6.30
11599;DHT22;5855;48.840;9.188;2023-06-24T14:51:36;49.10;6.50
11599;DHT22;5855;48.840;9.188;2023-06-24T14:54:03;48.60;6.40
11599;DHT22;5855;48.840;9.188;2023-06-24T14:56:30;49.00;6.20
11599;DHT22;5855;48.840;9.188;2023-06-24T14:58:57;48.50;6.20
11599;DHT22;5855;48.840;9.188;2023-06-24T15:01:27;48.40;6.30
11599;DHT22;5855;48.840;9.188;2023-06-24T15:03:54;49.20;6.30
11599;DHT22;5855;48.840;9.188;2023-06-24T15:06:21;49.10;5.90
11599;DHT22;5855;48.840;9.188;2023-06-24T15:08:49;49.70;5.80
11599;DHT22;5855;48.840;9.188;2023-06-24T15:11:16;49.80;6.20
11599;DHT22;5855;48.840;9.188;2023-06-24T15:13:43;49.80;6.00
11599;DHT22;5855;48.840;9.188;2023-06-24T15:16:10;49.90;5.30
11599;DHT22;5855;48.840;9.188;2023-06-24T15:18:44;50.30;5.20
11599;DHT22;5855;48.840;9.188;2023-06-24T15:21:11;50.30;5.20
11599;DHT22;5855;48.840;9.188;2023-06-24T15:23:38;49.50;5.10
11599;DHT22;5855;48.840;9.188;2023-06-24T15:26:06;49.90;5.40
11599;DHT22;5855;48.840;9.188;2023-06-24T15:28:33;49.50;5.60
11599;DHT22;5855;48.840;9.188;2023-06-24T15:31:00;49.10;5.50
11599;DHT22;5855;48.840;9.188;2023-06-24T15:33:27;49.00;5.50
11599;DHT22;5855;48.840;9.188;2023-06-24T15:35:54;48.40;6.40
11599;DHT22;5855;48.840;9.188;2023-06-24T15:38:23;48.40;6.30
11599;DHT22;5855;48.840;9.188;2023-06-24T15:40:50;49.00;5.90
11599;DHT22;5855;48.840;9.188;2023-06-24T15:43:24;48.50;6.20
11599;DHT22;5855;48.840;9.188;2023-06-24T15:45:50;47.80;6.60
11599;DHT22;5855;48.840;9.188;2023-06-24T15:48:17;48.00;6.50
11599;DHT22;5855;48.840;9.188;2023-06-24T15:50:44;47.20;6.60
11599;DHT22;5855;48.840;9.188;2023-06-24T15:53:11;47.60;6.50
11599;DHT22;5855;48.840;9.188;2023-06-24T15:55:39;47.10;6.60
11599;DHT22;5855;48.840;9.188;2023-06-24T15:58:06;47.20;6.90